sensor_id;sensor_type;location;lat;lon;timestamp;temperature;humidity
29203;DHT22;16245;51.170;4.884;2022-11-11T00:00:45;11.10;99.90
29203;DHT22;16245;51.170;4.884;2022-11-11T00:03:11;11.00;99.90
29203;DHT22;16245;51.170;4.884;2022-11-11T00:05:36;11.00;99.90
29203;DHT22;16245;51.170;4.884;2022-11-11T00:08:02;11.10;99.90
29203;DHT22;16245;51.170;4.884;2022-11-11T00:10:29;11.10;99.90
29203;DHT22;16245;51.170;4.884;2022-11-11T00:13:02;11.10;99.90
29203;DHT22;16245;51.170;4.884;2022-11-11T00:15:29;11.00;99.90
29203;DHT22;16245;51.170;4.884;2022-11-11T00:17:55;11.00;99.90
29203;DHT22;16245;51.170;4.884;2022-11-11T00:20:39;10.90;99.90
29203;DHT22;16245;51.170;4.884;2022-11-11T00:23:26;11.00;99.90
29203;DHT22;16245;51.170;4.884;2022-11-11T00:26:13;11.10;99.90
29203;DHT22;16245;51.170;4.884;2022-11-11T00:28:39;11.00;99.90
29203;DHT22;16245;51.170;4.884;2022-11-11T00:31:06;11.00;99.90
29203;DHT22;16245;51.170;4.884;2022-11-11T00:33:32;11.10;99.90
29203;DHT22;16245;51.170;4.884;2022-11-11T00:35:58;11.10;99.90
29203;DHT22;16245;51.170;4.884;2022-11-11T00:38:25;11.10;99.90
29203;DHT22;16245;51.170;4.884;2022-11-11T00:41:23;11.10;99.90
29203;DHT22;16245;51.170;4.884;2022-11-11T00:43:51;11.10;99.90
29203;DHT22;16245;51.170;4.884;2022-11-11T00:46:17;11.10;99.90
29203;DHT22;16245;51.170;4.884;2022-11-11T00:49:01;11.20;99.90
29203;DHT22;16245;51.170;4.884;2022-11-11T00:51:45;11.10;99.90
29203;DHT22;16245;51.170;4.884;2022-11-11T00:54:11;11.10;99.90
29203;DHT22;16245;51.170;4.884;2022-11-11T00:56:37;11.20;99.90
29203;DHT22;16245;51.170;4.884;2022-11-11T00:59:07;11.10;99.90
29203;DHT22;16245;51.170;4.884;2022-11-11T01:01:34;11.20;99.90
29203;DHT22;16245;51.170;4.884;2022-11-11T01:04:00;11.20;99.90
29203;DHT22;16245;51.170;4.884;2022-11-11T01:06:26;11.20;99.90
29203;DHT22;16245;51.170;4.884;2022-11-11T01:08:53;11.20;99.90
29203;DHT22;16245;51.170;4.884;2022-11-11T01:11:21;11.10;99.90
29203;DHT22;16245;51.170;4.884;2022-11-11T01:13:48;11.10;99.90
29203;DHT22;16245;51.170;4.884;2022-11-11T01:16:22;11.00;99.90
29203;DHT22;16245;51.170;4.884;2022-11-11T01:18:50;11.00;99.90
29203;DHT22;16245;51.170;4.884;2022-11-11T01:21:21;11.00;99.90
29203;DHT22;16245;51.170;4.884;2022-11-11T01:23:47;11.10;99.90
29203;DHT22;16245;51.170;4.884;2022-11-11T01:26:26;11.10;99.90
29203;DHT22;16245;51.170;4.884;2022-11-11T01:28:54;11.00;99.90
29203;DHT22;16245;51.170;4.884;2022-11-11T01:31:22;11.00;99.90
29203;DHT22;16245;51.170;4.884;2022-11-11T01:33:48;11.10;99.90
29203;DHT22;16245;51.170;4.884;2022-11-11T01:36:22;11.00;99.90
29203;DHT22;16245;51.170;4.884;2022-11-11T01:38:50;11.10;99.90
29203;DHT22;16245;51.170;4.884;2022-11-11T01:41:20;11.10;99.90
29203;DHT22;16245;51.170;4.884;2022-11-11T01:43:59;11.00;99.90
29203;DHT22;16245;51.170;4.884;2022-11-11T01:46:35;11.00;99.90
29203;DHT22;16245;51.170;4.884;2022-11-11T01:54:43;11.00;99.90
29203;DHT22;16245;51.170;4.884;2022-11-11T01:59:36;11.00;99.90
29203;DHT22;16245;51.170;4.884;2022-11-11T02:02:42;11.10;99.90
29203;DHT22;16245;51.170;4.884;2022-11-11T02:05:02;11.00;99.90
29203;DHT22;16245;51.170;4.884;2022-11-11T02:07:47;10.90;99.90
29203;DHT22;16245;51.170;4.884;2022-11-11T02:10:13;10.90;99.90
29203;DHT22;16245;51.170;4.884;2022-11-11T02:12:39;11.00;99.90
29203;DHT22;16245;51.170;4.884;2022-11-11T02:15:23;11.00;99.90
29203;DHT22;16245;51.170;4.884;2022-11-11T02:17:49;10.90;99.90
29203;DHT22;16245;51.170;4.884;2022-11-11T02:20:19;10.90;99.90
29203;DHT22;16245;51.170;4.884;2022-11-11T02:22:59;10.90;99.90
29203;DHT22;16245;51.170;4.884;2022-11-11T02:25:29;10.80;99.90
29203;DHT22;16245;51.170;4.884;2022-11-11T02:27:58;10.90;99.90
29203;DHT22;16245;51.170;4.884;2022-11-11T02:30:26;11.00;99.90
29203;DHT22;16245;51.170;4.884;2022-11-11T02:32:52;10.90;99.90
29203;DHT22;16245;51.170;4.884;2022-11-11T02:35:28;10.90;99.90
29203;DHT22;16245;51.170;4.884;2022-11-11T02:37:54;10.90;99.90
29203;DHT22;16245;51.170;4.884;2022-11-11T02:40:24;10.80;99.90
29203;DHT22;16245;51.170;4.884;2022-11-11T02:42:51;10.80;99.90
29203;DHT22;16245;51.170;4.884;2022-11-11T02:45:17;10.80;99.90
29203;DHT22;16245;51.170;4.884;2022-11-11T02:47:42;10.80;99.90
29203;DHT22;16245;51.170;4.884;2022-11-11T02:50:08;10.80;99.90
29203;DHT22;16245;51.170;4.884;2022-11-11T02:52:34;10.90;99.90
29203;DHT22;16245;51.170;4.884;2022-11-11T02:55:00;10.80;99.90
29203;DHT22;16245;51.170;4.884;2022-11-11T02:57:26;10.80;99.90
29203;DHT22;16245;51.170;4.884;2022-11-11T02:59:52;10.80;99.90
29203;DHT22;16245;51.170;4.884;2022-11-11T03:02:18;10.80;99.90
29203;DHT22;16245;51.170;4.884;2022-11-11T03:04:44;10.80;99.90
29203;DHT22;16245;51.170;4.884;2022-11-11T03:07:09;10.80;99.90
29203;DHT22;16245;51.170;4.884;2022-11-11T03:09:35;10.70;99.90
29203;DHT22;16245;51.170;4.884;2022-11-11T03:12:01;10.70;99.90
29203;DHT22;16245;51.170;4.884;2022-11-11T03:14:26;10.70;99.90
29203;DHT22;16245;51.170;4.884;2022-11-11T03:16:52;10.70;99.90
29203;DHT22;16245;51.170;4.884;2022-11-11T03:19:36;10.60;99.90
29203;DHT22;16245;51.170;4.884;2022-11-11T03:22:02;10.60;99.90
29203;DHT22;16245;51.170;4.884;2022-11-11T03:24:29;10.60;99.90
29203;DHT22;16245;51.170;4.884;2022-11-11T03:27:15;10.60;99.90
29203;DHT22;16245;51.170;4.884;2022-11-11T03:29:40;10.60;99.90
29203;DHT22;16245;51.170;4.884;2022-11-11T03:32:08;10.70;99.90
29203;DHT22;16245;51.170;4.884;2022-11-11T03:34:34;10.60;99.90
29203;DHT22;16245;51.170;4.884;2022-11-11T03:37:00;10.60;99.90
29203;DHT22;16245;51.170;4.884;2022-11-11T03:39:44;10.60;99.90
29203;DHT22;16245;51.170;4.884;2022-11-11T03:42:10;10.60;99.90
29203;DHT22;16245;51.170;4.884;2022-11-11T03:44:35;10.70;99.90
29203;DHT22;16245;51.170;4.884;2022-11-11T03:47:01;10.70;99.90
29203;DHT22;16245;51.170;4.884;2022-11-11T03:49:26;10.70;99.90
29203;DHT22;16245;51.170;4.884;2022-11-11T03:51:52;10.70;99.90
29203;DHT22;16245;51.170;4.884;2022-11-11T03:54:18;10.70;99.90
29203;DHT22;16245;51.170;4.884;2022-11-11T03:56:43;10.60;99.90
29203;DHT22;16245;51.170;4.884;2022-11-11T03:59:09;10.60;99.90
29203;DHT22;16245;51.170;4.884;2022-11-11T04:01:34;10.70;99.90
29203;DHT22;16245;51.170;4.884;2022-11-11T04:04:18;10.60;99.90
29203;DHT22;16245;51.170;4.884;2022-11-11T04:07:02;10.50;99.90
29203;DHT22;16245;51.170;4.884;2022-11-11T04:09:46;10.60;99.90
29203;DHT22;16245;51.170;4.884;2022-11-11T04:12:32;10.60;99.90
29203;DHT22;16245;51.170;4.884;2022-11-11T04:15:19;10.50;99.90
29203;DHT22;16245;51.170;4.884;2022-11-11T04:18:03;10.60;99.90
29203;DHT22;16245;51.170;4.884;2022-11-11T04:20:29;10.60;99.90
29203;DHT22;16245;51.170;4.884;2022-11-11T04:23:13;10.60;99.90
29203;DHT22;16245;51.170;4.884;2022-11-11T04:25:38;10.60;99.90
29203;DHT22;16245;51.170;4.884;2022-11-11T04:28:13;10.50;99.90
29203;DHT22;16245;51.170;4.884;2022-11-11T04:30:57;10.60;99.90
29203;DHT22;16245;51.170;4.884;2022-11-11T04:33:23;10.60;99.90
29203;DHT22;16245;51.170;4.884;2022-11-11T04:35:49;10.60;99.90
29203;DHT22;16245;51.170;4.884;2022-11-11T04:38:14;10.60;99.90
29203;DHT22;16245;51.170;4.884;2022-11-11T04:40:58;10.50;99.90
29203;DHT22;16245;51.170;4.884;2022-11-11T04:43:31;10.50;99.90
29203;DHT22;16245;51.170;4.884;2022-11-11T04:45:59;10.40;99.90
29203;DHT22;16245;51.170;4.884;2022-11-11T04:48:24;10.40;99.90
29203;DHT22;16245;51.170;4.884;2022-11-11T04:50:50;10.50;99.90
29203;DHT22;16245;51.170;4.884;2022-11-11T04:53:16;10.40;99.90
29203;DHT22;16245;51.170;4.884;2022-11-11T04:55:43;10.30;99.90
29203;DHT22;16245;51.170;4.884;2022-11-11T04:58:33;10.30;99.90
29203;DHT22;16245;51.170;4.884;2022-11-11T05:01:05;10.20;99.90
29203;DHT22;16245;51.170;4.884;2022-11-11T05:03:30;10.20;99.90
29203;DHT22;16245;51.170;4.884;2022-11-11T05:05:58;10.20;99.90
29203;DHT22;16245;51.170;4.884;2022-11-11T05:08:44;10.20;99.90
29203;DHT22;16245;51.170;4.884;2022-11-11T05:13:49;10.10;99.90
29203;DHT22;16245;51.170;4.884;2022-11-11T05:16:39;10.20;99.90
29203;DHT22;16245;51.170;4.884;2022-11-11T05:19:24;10.20;99.90
29203;DHT22;16245;51.170;4.884;2022-11-11T05:22:24;10.20;99.90
29203;DHT22;16245;51.170;4.884;2022-11-11T05:24:51;10.20;99.90
29203;DHT22;16245;51.170;4.884;2022-11-11T05:27:35;10.20;99.90
29203;DHT22;16245;51.170;4.884;2022-11-11T05:30:01;10.10;99.90
29203;DHT22;16245;51.170;4.884;2022-11-11T05:32:27;10.20;99.90
29203;DHT22;16245;51.170;4.884;2022-11-11T05:34:53;10.30;99.90
29203;DHT22;16245;51.170;4.884;2022-11-11T05:37:19;10.30;99.90
29203;DHT22;16245;51.170;4.884;2022-11-11T05:39:45;10.30;99.90
29203;DHT22;16245;51.170;4.884;2022-11-11T05:42:10;10.30;99.90
29203;DHT22;16245;51.170;4.884;2022-11-11T05:44:36;10.20;99.90
29203;DHT22;16245;51.170;4.884;2022-11-11T05:47:02;10.20;99.90
29203;DHT22;16245;51.170;4.884;2022-11-11T05:49:28;10.10;99.90
29203;DHT22;16245;51.170;4.884;2022-11-11T05:51:54;10.10;99.90
29203;DHT22;16245;51.170;4.884;2022-11-11T05:54:21;10.00;99.90
29203;DHT22;16245;51.170;4.884;2022-11-11T05:56:47;10.00;99.90
29203;DHT22;16245;51.170;4.884;2022-11-11T05:59:13;9.90;99.90
29203;DHT22;16245;51.170;4.884;2022-11-11T06:01:39;9.80;99.90
29203;DHT22;16245;51.170;4.884;2022-11-11T06:04:05;9.70;99.90
29203;DHT22;16245;51.170;4.884;2022-11-11T06:06:33;9.80;99.90
29203;DHT22;16245;51.170;4.884;2022-11-11T06:08:58;9.70;99.90
29203;DHT22;16245;51.170;4.884;2022-11-11T06:11:25;9.60;99.90
29203;DHT22;16245;51.170;4.884;2022-11-11T06:13:52;9.50;99.90
29203;DHT22;16245;51.170;4.884;2022-11-11T06:16:18;9.60;99.90
29203;DHT22;16245;51.170;4.884;2022-11-11T06:18:44;9.50;99.90
29203;DHT22;16245;51.170;4.884;2022-11-11T06:21:09;9.60;99.90
29203;DHT22;16245;51.170;4.884;2022-11-11T06:23:35;9.50;99.90
29203;DHT22;16245;51.170;4.884;2022-11-11T06:26:01;9.50;99.90
29203;DHT22;16245;51.170;4.884;2022-11-11T06:28:50;9.50;99.90
29203;DHT22;16245;51.170;4.884;2022-11-11T06:31:22;9.40;99.90
29203;DHT22;16245;51.170;4.884;2022-11-11T06:33:48;9.40;99.90
29203;DHT22;16245;51.170;4.884;2022-11-11T06:36:16;9.30;99.90
29203;DHT22;16245;51.170;4.884;2022-11-11T06:38:42;9.20;99.90
29203;DHT22;16245;51.170;4.884;2022-11-11T06:41:10;9.20;99.90
29203;DHT22;16245;51.170;4.884;2022-11-11T06:43:40;9.20;99.90
29203;DHT22;16245;51.170;4.884;2022-11-11T06:46:06;9.00;99.90
29203;DHT22;16245;51.170;4.884;2022-11-11T06:48:38;9.00;99.90
29203;DHT22;16245;51.170;4.884;2022-11-11T06:51:07;8.80;99.90
29203;DHT22;16245;51.170;4.884;2022-11-11T06:53:33;8.70;99.90
29203;DHT22;16245;51.170;4.884;2022-11-11T06:56:00;8.80;99.90
29203;DHT22;16245;51.170;4.884;2022-11-11T06:58:26;8.80;99.90
29203;DHT22;16245;51.170;4.884;2022-11-11T07:00:51;8.80;99.90
29203;DHT22;16245;51.170;4.884;2022-11-11T07:03:19;8.70;99.90
29203;DHT22;16245;51.170;4.884;2022-11-11T07:05:45;8.90;99.90
29203;DHT22;16245;51.170;4.884;2022-11-11T07:08:14;8.90;99.90
29203;DHT22;16245;51.170;4.884;2022-11-11T07:10:46;9.00;99.90
29203;DHT22;16245;51.170;4.884;2022-11-11T07:13:14;8.90;99.90
29203;DHT22;16245;51.170;4.884;2022-11-11T07:15:43;8.90;99.90
29203;DHT22;16245;51.170;4.884;2022-11-11T07:18:10;8.90;99.90
29203;DHT22;16245;51.170;4.884;2022-11-11T07:20:36;9.00;99.90
29203;DHT22;16245;51.170;4.884;2022-11-11T07:23:03;8.90;99.90
29203;DHT22;16245;51.170;4.884;2022-11-11T07:25:29;8.90;99.90
29203;DHT22;16245;51.170;4.884;2022-11-11T07:27:54;8.90;99.90
29203;DHT22;16245;51.170;4.884;2022-11-11T07:30:20;9.00;99.90
29203;DHT22;16245;51.170;4.884;2022-11-11T07:32:47;9.00;99.90
29203;DHT22;16245;51.170;4.884;2022-11-11T07:35:14;8.90;99.90
29203;DHT22;16245;51.170;4.884;2022-11-11T07:37:41;8.90;99.90
29203;DHT22;16245;51.170;4.884;2022-11-11T07:40:08;8.90;99.90
29203;DHT22;16245;51.170;4.884;2022-11-11T07:42:36;9.00;99.90
29203;DHT22;16245;51.170;4.884;2022-11-11T07:45:02;9.00;99.90
29203;DHT22;16245;51.170;4.884;2022-11-11T07:47:28;9.00;99.90
29203;DHT22;16245;51.170;4.884;2022-11-11T07:49:54;9.00;99.90
29203;DHT22;16245;51.170;4.884;2022-11-11T07:52:19;9.00;99.90
29203;DHT22;16245;51.170;4.884;2022-11-11T07:54:48;9.10;99.90
29203;DHT22;16245;51.170;4.884;2022-11-11T07:57:14;9.10;99.90
29203;DHT22;16245;51.170;4.884;2022-11-11T07:59:39;9.00;99.90
29203;DHT22;16245;51.170;4.884;2022-11-11T08:02:09;9.00;99.90
29203;DHT22;16245;51.170;4.884;2022-11-11T08:04:34;9.00;99.90
29203;DHT22;16245;51.170;4.884;2022-11-11T08:07:00;9.10;99.90
29203;DHT22;16245;51.170;4.884;2022-11-11T08:09:25;9.10;99.90
29203;DHT22;16245;51.170;4.884;2022-11-11T08:11:51;9.20;99.90
29203;DHT22;16245;51.170;4.884;2022-11-11T08:14:35;9.20;99.90
29203;DHT22;16245;51.170;4.884;2022-11-11T08:17:01;9.20;99.90
29203;DHT22;16245;51.170;4.884;2022-11-11T08:19:26;9.20;99.90
29203;DHT22;16245;51.170;4.884;2022-11-11T08:21:52;9.10;99.90
29203;DHT22;16245;51.170;4.884;2022-11-11T08:24:18;9.10;99.90
29203;DHT22;16245;51.170;4.884;2022-11-11T08:26:44;9.10;99.90
29203;DHT22;16245;51.170;4.884;2022-11-11T08:29:10;9.20;99.90
29203;DHT22;16245;51.170;4.884;2022-11-11T08:31:35;9.30;99.90
29203;DHT22;16245;51.170;4.884;2022-11-11T08:34:03;9.30;99.90
29203;DHT22;16245;51.170;4.884;2022-11-11T08:36:29;9.50;99.90
29203;DHT22;16245;51.170;4.884;2022-11-11T08:38:55;9.50;99.90
29203;DHT22;16245;51.170;4.884;2022-11-11T08:41:21;9.70;99.90
29203;DHT22;16245;51.170;4.884;2022-11-11T08:43:53;9.80;99.90
29203;DHT22;16245;51.170;4.884;2022-11-11T08:46:20;9.90;99.90
29203;DHT22;16245;51.170;4.884;2022-11-11T08:48:46;10.10;99.90
29203;DHT22;16245;51.170;4.884;2022-11-11T08:51:12;10.20;99.90
29203;DHT22;16245;51.170;4.884;2022-11-11T08:53:38;10.60;99.90
29203;DHT22;16245;51.170;4.884;2022-11-11T08:56:04;11.10;99.90
29203;DHT22;16245;51.170;4.884;2022-11-11T08:58:30;11.80;99.90
29203;DHT22;16245;51.170;4.884;2022-11-11T09:00:56;12.50;99.90
29203;DHT22;16245;51.170;4.884;2022-11-11T09:03:21;13.20;99.90
29203;DHT22;16245;51.170;4.884;2022-11-11T09:05:47;13.90;99.90
29203;DHT22;16245;51.170;4.884;2022-11-11T09:08:13;14.20;99.90
29203;DHT22;16245;51.170;4.884;2022-11-11T09:10:39;14.70;99.90
29203;DHT22;16245;51.170;4.884;2022-11-11T09:13:05;15.00;99.90
29203;DHT22;16245;51.170;4.884;2022-11-11T09:15:34;15.50;99.90
29203;DHT22;16245;51.170;4.884;2022-11-11T09:18:00;15.30;99.90
29203;DHT22;16245;51.170;4.884;2022-11-11T09:20:26;15.40;99.90
29203;DHT22;16245;51.170;4.884;2022-11-11T09:22:52;16.10;99.90
29203;DHT22;16245;51.170;4.884;2022-11-11T09:25:18;16.40;99.90
29203;DHT22;16245;51.170;4.884;2022-11-11T09:27:55;16.60;99.90
29203;DHT22;16245;51.170;4.884;2022-11-11T09:30:22;16.70;99.90
29203;DHT22;16245;51.170;4.884;2022-11-11T09:32:48;17.20;99.90
29203;DHT22;16245;51.170;4.884;2022-11-11T09:35:14;17.90;99.90
29203;DHT22;16245;51.170;4.884;2022-11-11T09:37:39;18.40;99.90
29203;DHT22;16245;51.170;4.884;2022-11-11T09:40:05;18.70;99.90
29203;DHT22;16245;51.170;4.884;2022-11-11T09:45:13;18.30;99.90
29203;DHT22;16245;51.170;4.884;2022-11-11T09:50:11;18.00;99.90
29203;DHT22;16245;51.170;4.884;2022-11-11T09:52:44;17.70;99.90
29203;DHT22;16245;51.170;4.884;2022-11-11T09:55:39;17.80;99.90
29203;DHT22;16245;51.170;4.884;2022-11-11T09:58:16;17.60;99.90
29203;DHT22;16245;51.170;4.884;2022-11-11T10:00:46;17.20;99.90
29203;DHT22;16245;51.170;4.884;2022-11-11T10:03:19;17.20;99.90
29203;DHT22;16245;51.170;4.884;2022-11-11T10:08:39;17.10;99.90
29203;DHT22;16245;51.170;4.884;2022-11-11T10:11:50;17.30;99.90
29203;DHT22;16245;51.170;4.884;2022-11-11T10:14:06;17.60;99.90
29203;DHT22;16245;51.170;4.884;2022-11-11T10:22:21;16.80;99.90
29203;DHT22;16245;51.170;4.884;2022-11-11T10:25:14;16.80;99.90
29203;DHT22;16245;51.170;4.884;2022-11-11T10:27:46;16.90;99.90
29203;DHT22;16245;51.170;4.884;2022-11-11T10:30:19;16.90;99.90
29203;DHT22;16245;51.170;4.884;2022-11-11T10:32:55;17.00;99.90
29203;DHT22;16245;51.170;4.884;2022-11-11T10:35:24;17.20;99.90
29203;DHT22;16245;51.170;4.884;2022-11-11T10:40:42;17.10;99.90
29203;DHT22;16245;51.170;4.884;2022-11-11T10:43:27;17.10;99.90
29203;DHT22;16245;51.170;4.884;2022-11-11T10:46:17;17.10;99.90
29203;DHT22;16245;51.170;4.884;2022-11-11T10:51:43;17.40;99.90
29203;DHT22;16245;51.170;4.884;2022-11-11T10:54:16;17.40;99.90
29203;DHT22;16245;51.170;4.884;2022-11-11T10:57:59;16.90;99.90
29203;DHT22;16245;51.170;4.884;2022-11-11T11:00:08;16.40;99.90
29203;DHT22;16245;51.170;4.884;2022-11-11T11:07:58;15.70;99.90
29203;DHT22;16245;51.170;4.884;2022-11-11T11:13:52;15.30;99.90
29203;DHT22;16245;51.170;4.884;2022-11-11T11:16:23;15.20;99.90
29203;DHT22;16245;51.170;4.884;2022-11-11T11:19:15;15.20;99.90
29203;DHT22;16245;51.170;4.884;2022-11-11T11:24:40;15.10;99.90
29203;DHT22;16245;51.170;4.884;2022-11-11T11:27:07;15.00;99.90
29203;DHT22;16245;51.170;4.884;2022-11-11T11:29:41;14.90;99.90
29203;DHT22;16245;51.170;4.884;2022-11-11T11:32:15;14.90;99.90
29203;DHT22;16245;51.170;4.884;2022-11-11T11:34:49;14.80;99.90
29203;DHT22;16245;51.170;4.884;2022-11-11T11:37:16;14.80;99.90
29203;DHT22;16245;51.170;4.884;2022-11-11T11:39:42;14.70;99.90
29203;DHT22;16245;51.170;4.884;2022-11-11T11:42:08;14.60;99.90
29203;DHT22;16245;51.170;4.884;2022-11-11T11:44:51;14.60;99.90
29203;DHT22;16245;51.170;4.884;2022-11-11T11:50:23;14.60;99.90
29203;DHT22;16245;51.170;4.884;2022-11-11T11:53:05;14.60;99.90
29203;DHT22;16245;51.170;4.884;2022-11-11T11:55:35;14.80;99.90
29203;DHT22;16245;51.170;4.884;2022-11-11T12:01:10;14.90;99.90
29203;DHT22;16245;51.170;4.884;2022-11-11T12:06:35;14.90;99.90
29203;DHT22;16245;51.170;4.884;2022-11-11T12:09:53;15.00;99.90
29203;DHT22;16245;51.170;4.884;2022-11-11T12:12:28;15.10;99.90
29203;DHT22;16245;51.170;4.884;2022-11-11T12:15:33;15.10;99.90
29203;DHT22;16245;51.170;4.884;2022-11-11T12:18:39;15.20;99.90
29203;DHT22;16245;51.170;4.884;2022-11-11T12:21:13;15.10;99.90
29203;DHT22;16245;51.170;4.884;2022-11-11T12:40:13;15.20;99.90
29203;DHT22;16245;51.170;4.884;2022-11-11T12:43:00;15.20;99.90
29203;DHT22;16245;51.170;4.884;2022-11-11T12:45:45;15.20;99.90
29203;DHT22;16245;51.170;4.884;2022-11-11T12:56:41;15.50;99.90
29203;DHT22;16245;51.170;4.884;2022-11-11T13:05:35;15.50;99.90
29203;DHT22;16245;51.170;4.884;2022-11-11T13:13:07;15.40;99.90
29203;DHT22;16245;51.170;4.884;2022-11-11T13:15:39;15.40;99.90
29203;DHT22;16245;51.170;4.884;2022-11-11T13:18:14;15.30;99.90
29203;DHT22;16245;51.170;4.884;2022-11-11T13:21:03;15.40;99.90
29203;DHT22;16245;51.170;4.884;2022-11-11T13:23:30;15.40;99.90
29203;DHT22;16245;51.170;4.884;2022-11-11T13:25:59;15.40;99.90
29203;DHT22;16245;51.170;4.884;2022-11-11T13:28:37;15.50;99.90
29203;DHT22;16245;51.170;4.884;2022-11-11T13:33:57;15.60;99.90
29203;DHT22;16245;51.170;4.884;2022-11-11T13:36:28;15.60;99.90
29203;DHT22;16245;51.170;4.884;2022-11-11T13:38:57;15.70;99.90
29203;DHT22;16245;51.170;4.884;2022-11-11T13:41:28;15.70;99.90
29203;DHT22;16245;51.170;4.884;2022-11-11T13:43:58;15.60;99.90
29203;DHT22;16245;51.170;4.884;2022-11-11T13:46:45;15.70;99.90
29203;DHT22;16245;51.170;4.884;2022-11-11T13:49:28;15.70;99.90
29203;DHT22;16245;51.170;4.884;2022-11-11T13:52:00;15.60;99.90
29203;DHT22;16245;51.170;4.884;2022-11-11T13:57:44;15.70;99.90
29203;DHT22;16245;51.170;4.884;2022-11-11T14:00:33;15.80;99.90
29203;DHT22;16245;51.170;4.884;2022-11-11T14:05:44;15.90;99.90
29203;DHT22;16245;51.170;4.884;2022-11-11T14:11:34;15.80;99.90
29203;DHT22;16245;51.170;4.884;2022-11-11T14:17:00;15.70;99.90
29203;DHT22;16245;51.170;4.884;2022-11-11T14:19:28;15.80;99.90
29203;DHT22;16245;51.170;4.884;2022-11-11T14:24:43;15.60;99.90
29203;DHT22;16245;51.170;4.884;2022-11-11T14:29:51;15.50;99.90
29203;DHT22;16245;51.170;4.884;2022-11-11T14:32:25;15.50;99.90
29203;DHT22;16245;51.170;4.884;2022-11-11T14:35:08;15.50;99.90
29203;DHT22;16245;51.170;4.884;2022-11-11T14:40:35;15.40;99.90
29203;DHT22;16245;51.170;4.884;2022-11-11T14:43:34;15.30;99.90
29203;DHT22;16245;51.170;4.884;2022-11-11T14:46:10;15.10;99.90
29203;DHT22;16245;51.170;4.884;2022-11-11T14:51:49;14.90;99.90
29203;DHT22;16245;51.170;4.884;2022-11-11T14:54:29;14.80;99.90
29203;DHT22;16245;51.170;4.884;2022-11-11T14:57:05;14.70;99.90
29203;DHT22;16245;51.170;4.884;2022-11-11T14:59:31;14.60;99.90
29203;DHT22;16245;51.170;4.884;2022-11-11T15:01:58;14.50;99.90
29203;DHT22;16245;51.170;4.884;2022-11-11T15:04:25;14.40;99.90
29203;DHT22;16245;51.170;4.884;2022-11-11T15:06:59;14.40;99.90
29203;DHT22;16245;51.170;4.884;2022-11-11T15:09:47;14.30;99.90
29203;DHT22;16245;51.170;4.884;2022-11-11T15:15:36;14.10;99.90
29203;DHT22;16245;51.170;4.884;2022-11-11T15:23:37;13.60;99.90
29203;DHT22;16245;51.170;4.884;2022-11-11T15:31:35;13.30;99.90
29203;DHT22;16245;51.170;4.884;2022-11-11T15:36:59;13.10;99.90
29203;DHT22;16245;51.170;4.884;2022-11-11T15:39:42;12.90;99.90
29203;DHT22;16245;51.170;4.884;2022-11-11T15:45:00;12.70;99.90
29203;DHT22;16245;51.170;4.884;2022-11-11T15:47:27;12.70;99.90
29203;DHT22;16245;51.170;4.884;2022-11-11T15:49:53;12.60;99.90
29203;DHT22;16245;51.170;4.884;2022-11-11T15:54:48;12.40;99.90
29203;DHT22;16245;51.170;4.884;2022-11-11T15:57:25;12.30;99.90
29203;DHT22;16245;51.170;4.884;2022-11-11T15:59:51;12.20;99.90
29203;DHT22;16245;51.170;4.884;2022-11-11T16:02:20;12.20;99.90
29203;DHT22;16245;51.170;4.884;2022-11-11T16:04:48;12.20;99.90
29203;DHT22;16245;51.170;4.884;2022-11-11T16:07:21;12.00;99.90
29203;DHT22;16245;51.170;4.884;2022-11-11T16:09:48;11.80;99.90
29203;DHT22;16245;51.170;4.884;2022-11-11T16:12:23;11.70;99.90
29203;DHT22;16245;51.170;4.884;2022-11-11T16:14:52;11.60;99.90
29203;DHT22;16245;51.170;4.884;2022-11-11T16:17:19;11.60;99.90
29203;DHT22;16245;51.170;4.884;2022-11-11T16:19:46;11.50;99.90
29203;DHT22;16245;51.170;4.884;2022-11-11T16:22:21;11.30;99.90
29203;DHT22;16245;51.170;4.884;2022-11-11T16:24:47;11.20;99.90
29203;DHT22;16245;51.170;4.884;2022-11-11T16:27:27;11.10;99.90
29203;DHT22;16245;51.170;4.884;2022-11-11T16:29:53;11.00;99.90
29203;DHT22;16245;51.170;4.884;2022-11-11T16:32:32;10.90;99.90
29203;DHT22;16245;51.170;4.884;2022-11-11T16:34:59;10.90;99.90
29203;DHT22;16245;51.170;4.884;2022-11-11T16:37:25;10.90;99.90
29203;DHT22;16245;51.170;4.884;2022-11-11T16:39:50;10.90;99.90
29203;DHT22;16245;51.170;4.884;2022-11-11T16:42:22;10.90;99.90
29203;DHT22;16245;51.170;4.884;2022-11-11T16:44:56;10.70;99.90
29203;DHT22;16245;51.170;4.884;2022-11-11T16:50:16;10.50;99.90
29203;DHT22;16245;51.170;4.884;2022-11-11T16:52:55;10.40;99.90
29203;DHT22;16245;51.170;4.884;2022-11-11T16:57:59;10.20;99.90
29203;DHT22;16245;51.170;4.884;2022-11-11T17:00:26;10.20;99.90
29203;DHT22;16245;51.170;4.884;2022-11-11T17:03:25;10.10;99.90
29203;DHT22;16245;51.170;4.884;2022-11-11T17:05:54;10.10;99.90
29203;DHT22;16245;51.170;4.884;2022-11-11T17:10:58;9.90;99.90
29203;DHT22;16245;51.170;4.884;2022-11-11T17:13:24;9.90;99.90
29203;DHT22;16245;51.170;4.884;2022-11-11T17:15:54;9.90;99.90
29203;DHT22;16245;51.170;4.884;2022-11-11T17:18:21;9.80;99.90
29203;DHT22;16245;51.170;4.884;2022-11-11T17:20:47;9.80;99.90
29203;DHT22;16245;51.170;4.884;2022-11-11T17:23:13;9.70;99.90
29203;DHT22;16245;51.170;4.884;2022-11-11T17:25:38;9.70;99.90
29203;DHT22;16245;51.170;4.884;2022-11-11T17:28:04;9.60;99.90
29203;DHT22;16245;51.170;4.884;2022-11-11T17:30:30;9.50;99.90
29203;DHT22;16245;51.170;4.884;2022-11-11T17:32:55;9.50;99.90
29203;DHT22;16245;51.170;4.884;2022-11-11T17:35:21;9.40;99.90
29203;DHT22;16245;51.170;4.884;2022-11-11T17:37:46;9.40;99.90
29203;DHT22;16245;51.170;4.884;2022-11-11T17:40:12;9.40;99.90
29203;DHT22;16245;51.170;4.884;2022-11-11T17:42:38;9.40;99.90
29203;DHT22;16245;51.170;4.884;2022-11-11T17:45:04;9.40;99.90
29203;DHT22;16245;51.170;4.884;2022-11-11T17:47:30;9.30;99.90
29203;DHT22;16245;51.170;4.884;2022-11-11T17:49:56;9.30;99.90
29203;DHT22;16245;51.170;4.884;2022-11-11T17:52:22;9.30;99.90
29203;DHT22;16245;51.170;4.884;2022-11-11T17:54:48;9.20;99.90
29203;DHT22;16245;51.170;4.884;2022-11-11T17:57:14;9.20;99.90
29203;DHT22;16245;51.170;4.884;2022-11-11T17:59:39;9.10;99.90
29203;DHT22;16245;51.170;4.884;2022-11-11T18:02:06;9.00;99.90
29203;DHT22;16245;51.170;4.884;2022-11-11T18:04:31;9.00;99.90
29203;DHT22;16245;51.170;4.884;2022-11-11T18:06:57;8.90;99.90
29203;DHT22;16245;51.170;4.884;2022-11-11T18:09:22;8.80;99.90
29203;DHT22;16245;51.170;4.884;2022-11-11T18:11:48;8.70;99.90
29203;DHT22;16245;51.170;4.884;2022-11-11T18:14:14;8.70;99.90
29203;DHT22;16245;51.170;4.884;2022-11-11T18:16:42;8.70;99.90
29203;DHT22;16245;51.170;4.884;2022-11-11T18:19:08;8.80;99.90
29203;DHT22;16245;51.170;4.884;2022-11-11T18:21:34;8.80;99.90